Time;durP1;ratioP1;P1;durP2;ratioP2;P2;SDS_P1;SDS_P2;PMS_P1;PMS_P2;Temp;Humidity;BMP_temperature;BMP_pressure;BME280_temperature;BME280_humidity;BME280_pressure;Samples;Min_cycle;Max_cycle;Signal;HPM_P1;HPM_P2
2021/05/09 00:00:51;;;;;;;6.22;3.17;;;12.50;99.90;;;;;;4988461;28;20042;-77
2021/05/09 00:03:17;;;;;;;4.40;3.28;;;12.40;99.90;;;;;;4997091;28;20026;-77
2021/05/09 00:05:43;;;;;;;4.80;2.63;;;12.50;99.90;;;;;;4993449;28;20026;-77
2021/05/09 00:08:09;;;;;;;3.55;2.55;;;12.50;99.90;;;;;;5007956;28;20618;-77
2021/05/09 00:10:35;;;;;;;2.58;2.38;;;12.50;99.90;;;;;;5006985;28;20026;-77
2021/05/09 00:13:01;;;;;;;7.97;2.28;;;12.40;99.90;;;;;;5011095;28;20211;-77
2021/05/09 00:15:27;;;;;;;6.13;2.75;;;12.40;99.90;;;;;;4991999;28;20512;-77
2021/05/09 00:17:52;;;;;;;5.22;2.80;;;12.30;99.90;;;;;;4992202;28;20026;-76
2021/05/09 00:20:19;;;;;;;3.72;2.30;;;12.30;99.90;;;;;;4995463;28;20021;-76
2021/05/09 00:22:45;;;;;;;3.03;2.30;;;12.30;99.90;;;;;;5011857;28;20041;-77
2021/05/09 00:25:12;;;;;;;5.90;2.58;;;12.30;99.90;;;;;;4990857;28;20116;-77
2021/05/09 00:27:39;;;;;;;3.92;2.22;;;12.30;99.90;;;;;;4990157;28;20023;-77
2021/05/09 00:30:05;;;;;;;6.88;2.42;;;12.40;99.90;;;;;;4992018;28;20120;-76
2021/05/09 00:32:31;;;;;;;4.07;3.03;;;12.40;99.90;;;;;;5010944;28;20018;-76
2021/05/09 00:34:56;;;;;;;3.22;2.95;;;12.50;99.90;;;;;;4987009;28;20033;-75
2021/05/09 00:37:22;;;;;;;3.38;3.08;;;12.40;99.90;;;;;;4992055;28;20034;-76
2021/05/09 00:39:48;;;;;;;6.22;2.72;;;12.40;99.90;;;;;;4995512;28;20035;-76
2021/05/09 00:42:13;;;;;;;6.63;2.70;;;12.30;99.90;;;;;;5014121;28;20018;-76
2021/05/09 00:44:39;;;;;;;3.85;3.15;;;12.30;99.90;;;;;;5014441;28;20034;-76
2021/05/09 00:47:12;;;;;;;3.15;2.85;;;12.30;99.90;;;;;;5004621;28;20080;-76
2021/05/09 00:49:39;;;;;;;4.05;3.03;;;12.20;99.90;;;;;;4986463;28;20026;-76
2021/05/09 00:52:10;;;;;;;3.45;2.85;;;12.20;99.90;;;;;;4993209;28;20041;-76
2021/05/09 00:54:44;;;;;;;3.95;2.72;;;12.20;99.90;;;;;;5008711;28;20029;-76
2021/05/09 00:57:13;;;;;;;3.05;2.75;;;12.20;99.90;;;;;;4978235;28;20033;-77
2021/05/09 00:59:42;;;;;;;3.75;2.95;;;12.20;99.90;;;;;;5005328;28;20026;-78
2021/05/09 01:02:09;;;;;;;4.00;3.08;;;12.20;99.90;;;;;;5008966;28;20032;-76
2021/05/09 01:04:35;;;;;;;3.47;3.17;;;12.20;99.90;;;;;;4991715;28;20041;-76
2021/05/09 01:07:02;;;;;;;4.07;2.80;;;12.20;99.90;;;;;;5006429;28;20030;-76
2021/05/09 01:09:28;;;;;;;7.35;3.63;;;12.20;99.90;;;;;;4989319;28;20481;-76
2021/05/09 01:11:53;;;;;;;4.10;3.15;;;12.20;99.90;;;;;;5009361;28;20026;-76
2021/05/09 01:14:21;;;;;;;7.80;3.97;;;12.30;99.90;;;;;;5003740;28;20030;-76
2021/05/09 01:16:49;;;;;;;4.60;3.33;;;12.30;99.90;;;;;;4998653;28;20026;-77
2021/05/09 01:19:16;;;;;;;4.03;3.03;;;12.30;99.90;;;;;;4999938;28;20030;-76
2021/05/09 01:21:47;;;;;;;8.65;4.10;;;12.30;99.90;;;;;;4993127;28;20029;-77
2021/05/09 01:24:13;;;;;;;3.63;2.80;;;12.30;99.90;;;;;;5001276;28;20059;-77
2021/05/09 01:26:39;;;;;;;5.05;3.50;;;12.40;99.90;;;;;;4991558;28;20061;-77
2021/05/09 01:29:05;;;;;;;3.25;2.63;;;12.30;99.90;;;;;;5007871;28;20057;-76
2021/05/09 01:31:30;;;;;;;3.45;3.13;;;12.30;99.90;;;;;;5003986;28;20442;-76
2021/05/09 01:33:56;;;;;;;3.72;3.05;;;12.30;99.90;;;;;;5005356;28;20109;-76
2021/05/09 01:36:22;;;;;;;6.72;4.00;;;12.20;99.90;;;;;;5003807;28;20038;-77
2021/05/09 01:38:48;;;;;;;8.65;3.85;;;12.20;99.90;;;;;;4990593;28;20026;-76
2021/05/09 01:41:13;;;;;;;4.68;3.05;;;12.30;99.90;;;;;;5012754;28;20080;-75
2021/05/09 01:43:39;;;;;;;8.30;4.15;;;12.40;99.90;;;;;;4994074;28;20061;-76
2021/05/09 01:46:05;;;;;;;5.57;2.63;;;12.40;99.90;;;;;;4996081;28;20034;-76
2021/05/09 01:48:31;;;;;;;4.88;3.08;;;12.30;99.90;;;;;;5011392;28;20102;-76
2021/05/09 01:50:57;;;;;;;3.85;2.90;;;12.40;99.90;;;;;;5011052;28;20109;-77
2021/05/09 01:53:29;;;;;;;4.03;3.63;;;12.30;99.90;;;;;;5008020;28;20068;-76
2021/05/09 01:55:57;;;;;;;3.45;3.15;;;12.30;99.90;;;;;;4993953;28;20042;-76
2021/05/09 01:58:22;;;;;;;3.80;2.67;;;12.30;99.90;;;;;;5005448;28;20036;-76
2021/05/09 02:00:48;;;;;;;3.45;3.15;;;12.20;99.90;;;;;;4993822;28;20057;-76
2021/05/09 02:03:14;;;;;;;4.30;3.22;;;12.20;99.90;;;;;;5013898;28;20109;-76
2021/05/09 02:05:40;;;;;;;4.15;3.08;;;12.20;99.90;;;;;;5013767;28;20030;-76
2021/05/09 02:08:05;;;;;;;4.18;3.08;;;12.20;99.90;;;;;;4994421;28;20026;-76
2021/05/09 02:10:31;;;;;;;3.75;2.63;;;12.20;99.90;;;;;;5008460;28;20022;-77
2021/05/09 02:12:57;;;;;;;3.72;2.95;;;12.10;99.90;;;;;;5012821;28;20030;-76
2021/05/09 02:15:23;;;;;;;5.55;2.33;;;12.10;99.90;;;;;;5008413;28;20022;-76
2021/05/09 02:17:48;;;;;;;2.97;2.72;;;12.10;99.90;;;;;;5006468;28;20030;-76
2021/05/09 02:20:15;;;;;;;4.35;3.30;;;12.10;99.90;;;;;;4996425;28;20034;-76
2021/05/09 02:22:41;;;;;;;8.20;3.50;;;12.00;99.90;;;;;;4993972;28;20428;-76
2021/05/09 02:25:07;;;;;;;5.35;4.30;;;11.90;99.90;;;;;;5010681;28;20045;-76
2021/05/09 02:27:33;;;;;;;5.72;4.03;;;11.90;99.90;;;;;;4990545;28;20022;-76
2021/05/09 02:29:59;;;;;;;4.43;3.88;;;11.80;99.90;;;;;;5008401;28;20068;-76
2021/05/09 02:32:25;;;;;;;4.65;3.95;;;11.80;99.90;;;;;;4993321;28;20030;-77
2021/05/09 02:34:51;;;;;;;5.85;4.18;;;11.90;99.90;;;;;;5011343;28;20037;-77
2021/05/09 02:37:17;;;;;;;8.13;4.40;;;11.90;99.90;;;;;;4995953;28;20033;-76
2021/05/09 02:39:45;;;;;;;4.47;3.72;;;11.90;99.90;;;;;;4991032;28;20121;-76
2021/05/09 02:42:11;;;;;;;4.50;4.10;;;11.80;99.90;;;;;;4991751;28;20029;-77
2021/05/09 02:44:37;;;;;;;3.10;2.67;;;11.90;99.90;;;;;;4994194;28;20503;-77
2021/05/09 02:47:02;;;;;;;3.75;3.45;;;11.90;99.90;;;;;;5012443;28;20085;-76
2021/05/09 02:49:29;;;;;;;3.95;3.55;;;11.90;99.90;;;;;;5009685;28;20037;-77
2021/05/09 02:51:55;;;;;;;4.43;3.88;;;11.80;99.90;;;;;;4992257;28;20061;-77
2021/05/09 02:54:20;;;;;;;6.15;4.07;;;11.80;99.90;;;;;;4995588;28;20088;-77
2021/05/09 02:56:46;;;;;;;5.28;3.42;;;11.80;99.90;;;;;;4992940;28;20029;-77
2021/05/09 02:59:12;;;;;;;3.80;3.15;;;11.70;99.90;;;;;;5009611;28;20026;-77
2021/05/09 03:01:37;;;;;;;7.32;3.88;;;11.70;99.90;;;;;;5007334;28;20500;-77
2021/05/09 03:04:04;;;;;;;4.13;3.30;;;11.60;99.90;;;;;;4993066;28;20038;-76
2021/05/09 03:06:29;;;;;;;4.97;3.75;;;11.70;99.90;;;;;;5012875;28;20033;-76
2021/05/09 03:08:55;;;;;;;3.75;3.28;;;11.60;99.90;;;;;;4991281;28;20027;-77
2021/05/09 03:11:21;;;;;;;5.10;3.80;;;11.60;99.90;;;;;;4983404;28;20492;-77
2021/05/09 03:13:47;;;;;;;5.78;2.95;;;11.60;99.90;;;;;;5009884;28;20092;-77
2021/05/09 03:16:13;;;;;;;4.13;3.50;;;11.60;99.90;;;;;;5012955;28;20032;-77
2021/05/09 03:18:38;;;;;;;7.03;4.07;;;11.60;99.90;;;;;;4988304;28;20655;-77
2021/05/09 03:21:04;;;;;;;7.13;4.20;;;11.60;99.90;;;;;;4994449;28;20026;-77
2021/05/09 03:23:30;;;;;;;3.90;3.50;;;11.60;99.90;;;;;;4988662;28;20046;-76
2021/05/09 03:25:56;;;;;;;4.82;4.05;;;11.60;99.90;;;;;;4994157;28;20057;-76
2021/05/09 03:28:21;;;;;;;8.00;3.75;;;11.60;99.90;;;;;;4996227;28;20025;-77
2021/05/09 03:30:47;;;;;;;8.15;4.07;;;11.60;99.90;;;;;;4989371;28;20050;-77
2021/05/09 03:33:13;;;;;;;5.47;3.65;;;11.60;99.90;;;;;;4996391;28;20030;-77
2021/05/09 03:35:38;;;;;;;5.10;3.10;;;11.50;99.90;;;;;;4991939;28;20034;-77
2021/05/09 03:38:06;;;;;;;5.55;3.50;;;11.50;99.90;;;;;;4993991;28;20056;-77
2021/05/09 03:40:32;;;;;;;5.68;4.75;;;11.50;99.90;;;;;;5006690;28;20029;-77
2021/05/09 03:42:58;;;;;;;6.45;4.03;;;11.40;99.90;;;;;;5013537;28;20126;-76
2021/05/09 03:45:24;;;;;;;5.70;4.40;;;11.40;99.90;;;;;;5006648;28;20093;-76
2021/05/09 03:47:49;;;;;;;3.85;3.22;;;11.40;99.90;;;;;;4995362;28;20033;-76
2021/05/09 03:50:16;;;;;;;7.63;3.47;;;11.50;99.90;;;;;;4995680;28;20129;-75
2021/05/09 03:52:41;;;;;;;6.80;3.58;;;11.40;99.90;;;;;;4996345;28;20022;-77
2021/05/09 03:55:08;;;;;;;6.03;2.85;;;11.50;99.90;;;;;;5013584;28;20030;-77
2021/05/09 03:57:33;;;;;;;3.38;2.80;;;11.60;99.90;;;;;;5013378;28;20036;-76
2021/05/09 03:59:59;;;;;;;3.10;2.20;;;11.60;99.90;;;;;;5012733;28;20105;-77
2021/05/09 04:02:25;;;;;;;4.30;2.83;;;11.60;99.90;;;;;;4994067;28;20514;-76
2021/05/09 04:04:51;;;;;;;2.47;2.25;;;11.60;99.90;;;;;;4994252;28;20057;-77
2021/05/09 04:07:17;;;;;;;3.15;2.67;;;11.60;99.90;;;;;;4994374;28;20034;-76
2021/05/09 04:09:42;;;;;;;4.13;2.90;;;11.60;99.90;;;;;;4988996;28;20620;-77
2021/05/09 04:12:08;;;;;;;4.43;2.50;;;11.60;99.90;;;;;;4979036;28;20548;-77
2021/05/09 04:14:34;;;;;;;3.10;2.17;;;11.60;99.90;;;;;;4994465;28;20026;-77
2021/05/09 04:17:00;;;;;;;3.40;2.70;;;11.60;99.90;;;;;;5012158;28;20037;-76
2021/05/09 04:19:26;;;;;;;5.93;2.30;;;11.60;99.90;;;;;;5012265;28;20034;-76
2021/05/09 04:21:52;;;;;;;2.72;2.28;;;11.60;99.90;;;;;;5002113;28;20030;-76
2021/05/09 04:24:18;;;;;;;3.63;2.78;;;11.70;99.90;;;;;;5016398;28;20041;-75
2021/05/09 04:26:44;;;;;;;4.43;2.97;;;11.70;99.90;;;;;;5004060;28;20015;-76
2021/05/09 04:29:09;;;;;;;9.73;2.75;;;11.70;99.90;;;;;;5000214;28;20060;-76
2021/05/09 04:31:35;;;;;;;3.25;2.55;;;11.70;99.90;;;;;;4998009;28;20045;-76
2021/05/09 04:34:01;;;;;;;3.03;2.35;;;11.70;99.90;;;;;;5011671;28;20113;-77
2021/05/09 04:36:27;;;;;;;5.13;2.47;;;11.80;99.90;;;;;;4993747;28;20105;-77
2021/05/09 04:38:53;;;;;;;3.35;2.22;;;11.80;99.90;;;;;;5012552;28;20049;-76
2021/05/09 04:41:18;;;;;;;2.33;2.03;;;11.90;99.90;;;;;;4992080;28;20026;-76
2021/05/09 04:43:44;;;;;;;2.20;1.92;;;12.00;99.90;;;;;;4993178;28;20026;-76
2021/05/09 04:46:10;;;;;;;6.38;2.08;;;12.10;99.90;;;;;;4993054;28;20121;-76
2021/05/09 04:48:36;;;;;;;4.15;2.33;;;12.00;99.90;;;;;;4989965;28;20037;-75
2021/05/09 04:51:01;;;;;;;3.83;2.28;;;12.10;99.90;;;;;;5010774;28;20098;-76
2021/05/09 04:53:31;;;;;;;3.00;2.50;;;12.20;99.90;;;;;;5011116;28;20468;-76
2021/05/09 04:55:59;;;;;;;4.18;2.35;;;12.20;99.90;;;;;;5011040;28;20044;-76
2021/05/09 04:58:29;;;;;;;3.13;2.40;;;12.30;99.90;;;;;;4993649;28;20033;-76
2021/05/09 05:01:02;;;;;;;2.83;2.35;;;12.30;99.90;;;;;;5011691;28;20156;-76
2021/05/09 05:03:29;;;;;;;3.00;1.95;;;12.30;99.90;;;;;;4993828;28;20033;-76
2021/05/09 05:05:55;;;;;;;4.93;2.88;;;12.50;99.90;;;;;;5011895;28;20433;-77
2021/05/09 05:08:21;;;;;;;5.75;2.47;;;12.50;99.90;;;;;;5010922;28;20487;-77
2021/05/09 05:10:47;;;;;;;3.28;2.38;;;12.60;99.90;;;;;;5012269;28;20026;-75
2021/05/09 05:13:20;;;;;;;3.28;2.40;;;12.70;99.90;;;;;;4999505;28;20080;-76
2021/05/09 05:15:47;;;;;;;3.35;2.22;;;12.90;99.90;;;;;;4999935;28;20041;-75
2021/05/09 05:18:14;;;;;;;4.00;3.10;;;13.00;99.90;;;;;;5017497;28;20026;-76
2021/05/09 05:20:39;;;;;;;2.83;2.63;;;13.10;99.90;;;;;;5017417;28;20022;-76
2021/05/09 05:23:05;;;;;;;4.65;3.53;;;13.20;99.90;;;;;;5013129;28;20484;-76
2021/05/09 05:25:31;;;;;;;6.05;2.65;;;13.30;99.90;;;;;;5006651;28;20026;-76
2021/05/09 05:27:57;;;;;;;6.72;3.03;;;13.40;99.90;;;;;;5019696;28;20022;-76
2021/05/09 05:30:23;;;;;;;4.25;2.92;;;13.50;99.90;;;;;;5018401;28;20543;-76
2021/05/09 05:32:48;;;;;;;2.38;2.15;;;13.60;99.90;;;;;;5001587;28;20022;-76
2021/05/09 05:35:14;;;;;;;2.38;2.17;;;13.70;99.90;;;;;;5016810;28;20044;-76
2021/05/09 05:37:40;;;;;;;3.05;1.30;;;13.80;99.90;;;;;;5015961;28;20030;-76
2021/05/09 05:40:07;;;;;;;2.97;1.35;;;13.80;99.90;;;;;;5000754;28;20038;-76
2021/05/09 05:42:33;;;;;;;3.40;1.75;;;14.00;99.90;;;;;;5017754;28;20468;-76
2021/05/09 05:44:58;;;;;;;1.50;1.40;;;14.10;99.90;;;;;;4999881;28;20036;-76
2021/05/09 05:47:24;;;;;;;1.88;1.67;;;14.10;99.90;;;;;;5017565;28;20427;-76
2021/05/09 05:49:54;;;;;;;3.08;2.28;;;14.20;99.90;;;;;;5000052;28;20042;-77
2021/05/09 05:52:20;;;;;;;3.03;1.63;;;14.20;99.90;;;;;;5022622;28;20026;-77
2021/05/09 05:54:46;;;;;;;3.78;2.38;;;14.40;99.90;;;;;;5017772;28;20025;-76
2021/05/09 05:57:11;;;;;;;1.65;1.33;;;14.40;99.90;;;;;;4999557;28;20547;-77
2021/05/09 05:59:37;;;;;;;3.22;1.95;;;14.60;99.90;;;;;;4999864;28;20105;-77
2021/05/09 06:02:04;;;;;;;1.92;1.75;;;14.60;99.90;;;;;;4999942;28;20053;-77
2021/05/09 06:04:29;;;;;;;5.15;1.73;;;14.70;99.90;;;;;;5017705;28;20049;-77
2021/05/09 06:06:55;;;;;;;1.38;1.27;;;14.80;99.90;;;;;;5019606;28;20155;-77
2021/05/09 06:09:21;;;;;;;1.67;1.35;;;15.00;99.90;;;;;;5019630;28;20036;-77
2021/05/09 06:11:46;;;;;;;1.10;1.05;;;15.10;99.90;;;;;;5017204;28;20156;-77
2021/05/09 06:14:12;;;;;;;1.60;1.40;;;15.20;99.90;;;;;;5018891;28;20138;-77
2021/05/09 06:16:38;;;;;;;2.72;1.27;;;15.30;99.90;;;;;;5017208;28;20045;-77
2021/05/09 06:19:04;;;;;;;3.17;1.58;;;15.40;99.90;;;;;;5017480;28;20018;-76
2021/05/09 06:21:29;;;;;;;1.33;1.23;;;15.50;99.90;;;;;;5018141;28;20199;-76
2021/05/09 06:23:55;;;;;;;1.45;1.35;;;15.50;99.90;;;;;;4988452;28;20030;-77
2021/05/09 06:26:21;;;;;;;1.50;1.40;;;15.60;99.90;;;;;;5009606;28;20094;-78
2021/05/09 06:28:48;;;;;;;1.45;1.33;;;15.70;99.90;;;;;;5017601;28;20484;-77
2021/05/09 06:31:14;;;;;;;1.27;1.17;;;15.80;99.90;;;;;;5002572;28;20034;-77
2021/05/09 06:33:40;;;;;;;3.15;1.83;;;15.80;99.90;;;;;;5021768;28;20108;-77
2021/05/09 06:36:06;;;;;;;2.03;1.42;;;15.90;99.90;;;;;;4996151;28;20118;-77
2021/05/09 06:38:32;;;;;;;5.07;2.20;;;16.10;99.90;;;;;;5013653;28;20457;-77
2021/05/09 06:40:57;;;;;;;3.13;1.88;;;16.20;99.90;;;;;;4996453;28;20057;-77
2021/05/09 06:43:23;;;;;;;3.53;1.67;;;16.40;99.90;;;;;;5013286;28;20061;-75
2021/05/09 06:45:50;;;;;;;4.15;2.03;;;16.50;99.90;;;;;;5013611;28;20045;-78
2021/05/09 06:48:16;;;;;;;1.33;0.85;;;16.50;99.90;;;;;;4995712;28;20030;-77
2021/05/09 06:50:42;;;;;;;2.17;1.40;;;16.60;99.90;;;;;;5013350;28;20041;-77
2021/05/09 06:53:08;;;;;;;2.78;1.15;;;16.60;99.90;;;;;;4996578;28;20064;-77
2021/05/09 06:55:35;;;;;;;3.47;1.58;;;16.80;99.90;;;;;;4992832;28;20122;-78
2021/05/09 06:58:07;;;;;;;2.17;1.80;;;16.80;99.90;;;;;;4991270;28;20041;-78
2021/05/09 07:00:33;;;;;;;2.97;1.63;;;16.90;99.90;;;;;;5016156;28;20567;-77
2021/05/09 07:02:59;;;;;;;1.70;1.55;;;17.00;99.90;;;;;;5013213;28;20469;-76
2021/05/09 07:05:25;;;;;;;3.75;2.85;;;17.10;99.90;;;;;;5014519;28;20033;-77
2021/05/09 07:07:50;;;;;;;2.95;2.28;;;17.20;99.90;;;;;;5014724;28;20109;-76
2021/05/09 07:10:18;;;;;;;3.67;3.03;;;17.30;99.90;;;;;;4996721;28;20022;-77
2021/05/09 07:12:44;;;;;;;4.40;2.72;;;17.40;99.90;;;;;;4995570;28;20033;-77
2021/05/09 07:15:11;;;;;;;7.97;5.75;;;17.50;99.90;;;;;;5013439;28;20104;-77
2021/05/09 07:17:37;;;;;;;10.80;2.22;;;17.60;99.90;;;;;;5009923;28;20395;-77
2021/05/09 07:20:04;;;;;;;5.35;2.08;;;17.70;99.90;;;;;;5010846;28;20100;-77
2021/05/09 07:22:35;;;;;;;5.85;1.98;;;17.70;99.90;;;;;;4995601;28;20030;-78
2021/05/09 07:25:01;;;;;;;7.80;2.50;;;17.70;99.90;;;;;;4994954;28;20026;-77
2021/05/09 07:27:27;;;;;;;1.90;1.75;;;17.60;99.90;;;;;;5015670;28;20014;-77
2021/05/09 07:29:52;;;;;;;3.05;2.03;;;17.70;99.90;;;;;;4995628;28;20591;-77
2021/05/09 07:32:18;;;;;;;4.20;2.33;;;17.60;99.90;;;;;;5013113;28;20025;-77
2021/05/09 07:34:44;;;;;;;6.55;3.40;;;17.60;99.90;;;;;;4994603;28;20030;-77
2021/05/09 07:37:10;;;;;;;7.20;2.22;;;17.60;99.90;;;;;;5010306;28;20030;-77
2021/05/09 07:39:35;;;;;;;9.13;2.22;;;17.60;99.90;;;;;;5013543;28;20041;-78
2021/05/09 07:42:01;;;;;;;4.55;2.25;;;17.60;99.90;;;;;;4989707;28;20038;-77
2021/05/09 07:44:27;;;;;;;3.58;1.60;;;17.60;99.90;;;;;;5004845;28;20611;-78
2021/05/09 07:46:53;;;;;;;6.47;3.33;;;17.70;99.90;;;;;;4999275;28;20037;-77
2021/05/09 07:49:18;;;;;;;9.45;2.78;;;17.70;99.90;;;;;;5015873;28;20100;-78
2021/05/09 07:51:44;;;;;;;3.83;2.92;;;17.70;99.90;;;;;;5014469;28;20053;-78
2021/05/09 07:54:10;;;;;;;4.30;3.50;;;17.70;99.90;;;;;;5015969;28;20026;-78
2021/05/09 07:56:37;;;;;;;4.53;3.67;;;17.70;99.90;;;;;;5014525;28;20081;-78
2021/05/09 07:59:04;;;;;;;3.58;2.92;;;17.80;99.90;;;;;;5016254;28;20044;-78
2021/05/09 08:01:29;;;;;;;8.32;4.53;;;17.90;99.90;;;;;;4999028;28;20032;-72
2021/05/09 08:03:56;;;;;;;9.32;4.47;;;17.90;99.90;;;;;;5012229;28;20034;-71
2021/05/09 08:06:21;;;;;;;4.65;4.03;;;17.90;99.90;;;;;;4993534;28;20038;-72
2021/05/09 08:08:47;;;;;;;10.02;5.90;;;17.90;99.90;;;;;;5012628;28;20498;-71
2021/05/09 08:11:13;;;;;;;14.57;8.55;;;17.80;99.90;;;;;;4987573;28;20052;-71
2021/05/09 08:13:39;;;;;;;6.82;5.32;;;17.80;99.90;;;;;;5007408;28;20022;-70
2021/05/09 08:16:05;;;;;;;8.90;5.75;;;17.90;99.90;;;;;;5006632;28;20033;-71
2021/05/09 08:18:33;;;;;;;6.63;5.80;;;17.90;99.90;;;;;;4992509;28;20085;-74
2021/05/09 08:21:01;;;;;;;7.40;5.78;;;17.90;99.90;;;;;;5010875;28;20117;-72
2021/05/09 08:23:27;;;;;;;7.60;5.35;;;17.90;99.90;;;;;;5013861;28;20017;-70
2021/05/09 08:25:53;;;;;;;6.32;5.28;;;17.90;99.90;;;;;;5012791;28;20026;-70
2021/05/09 08:28:19;;;;;;;7.45;4.90;;;17.90;99.90;;;;;;4995674;28;20029;-73
2021/05/09 08:30:45;;;;;;;8.80;5.32;;;17.80;99.90;;;;;;5007934;28;20082;-70
2021/05/09 08:33:10;;;;;;;13.43;5.28;;;17.80;99.90;;;;;;5003517;28;20061;-71
2021/05/09 08:35:36;;;;;;;6.30;5.15;;;17.80;99.90;;;;;;5006610;28;20096;-71
2021/05/09 08:38:04;;;;;;;9.38;5.70;;;17.80;99.90;;;;;;4997547;28;20030;-71
2021/05/09 08:40:30;;;;;;;7.43;5.80;;;17.80;99.90;;;;;;4990624;28;20042;-71
2021/05/09 08:42:56;;;;;;;5.65;5.13;;;18.00;99.90;;;;;;5009376;28;20026;-71
2021/05/09 08:45:22;;;;;;;6.22;5.43;;;18.10;99.90;;;;;;4995575;28;20468;-73
2021/05/09 08:47:50;;;;;;;8.18;7.28;;;18.10;99.90;;;;;;4981430;28;20061;-71
2021/05/09 08:50:17;;;;;;;8.30;7.47;;;18.10;99.90;;;;;;5010493;28;20057;-74
2021/05/09 08:52:46;;;;;;;10.02;6.63;;;18.10;99.90;;;;;;5010271;28;20079;-74
2021/05/09 08:55:17;;;;;;;7.90;7.20;;;18.20;99.90;;;;;;4992871;28;20030;-73
2021/05/09 08:57:44;;;;;;;6.75;5.20;;;18.30;99.90;;;;;;5011906;28;20109;-72
2021/05/09 09:00:12;;;;;;;6.65;5.40;;;18.20;99.90;;;;;;4986806;28;20030;-71
2021/05/09 09:02:43;;;;;;;12.93;5.72;;;18.30;99.90;;;;;;5011282;28;20022;-71
2021/05/09 09:05:10;;;;;;;7.82;6.22;;;18.30;99.90;;;;;;4993496;28;20040;-70
2021/05/09 09:07:53;;;;;;;15.77;6.82;;;18.40;99.90;;;;;;4991531;28;20053;-71
2021/05/09 09:10:43;;;;;;;8.85;7.95;;;18.40;99.90;;;;;;4993265;28;20052;-71
2021/05/09 09:13:31;;;;;;;10.32;6.43;;;18.40;99.90;;;;;;4986301;28;20392;-71
2021/05/09 09:16:03;;;;;;;11.23;7.00;;;18.40;99.90;;;;;;4991337;28;20056;-72
2021/05/09 09:18:30;;;;;;;11.90;8.02;;;18.40;99.90;;;;;;4989505;28;20121;-70
2021/05/09 09:20:58;;;;;;;7.78;6.97;;;18.50;99.90;;;;;;5011045;28;20084;-71
2021/05/09 09:23:43;;;;;;;9.55;6.97;;;18.50;99.90;;;;;;5005815;28;20022;-70
2021/05/09 09:26:26;;;;;;;6.25;5.43;;;18.40;99.90;;;;;;4993023;28;20088;-71
2021/05/09 09:28:52;;;;;;;8.57;4.80;;;18.50;99.90;;;;;;5009490;28;20022;-68
2021/05/09 09:31:35;;;;;;;5.68;4.35;;;18.50;99.90;;;;;;5006800;28;20140;-71
2021/05/09 09:34:01;;;;;;;15.57;4.90;;;18.50;99.90;;;;;;5011352;28;20022;-69
2021/05/09 09:36:27;;;;;;;5.93;4.55;;;18.50;99.90;;;;;;4991284;28;20033;-70
2021/05/09 09:38:52;;;;;;;4.60;3.92;;;18.60;99.90;;;;;;5002118;28;20060;-71
2021/05/09 09:41:20;;;;;;;5.78;4.65;;;18.80;99.90;;;;;;4991810;28;20038;-69
2021/05/09 09:43:58;;;;;;;5.78;4.55;;;18.70;99.90;;;;;;5009878;28;20029;-70
2021/05/09 09:46:38;;;;;;;7.65;4.53;;;18.70;99.90;;;;;;4989762;28;20026;-71
2021/05/09 09:49:31;;;;;;;8.27;4.65;;;18.70;99.90;;;;;;5008605;28;20030;-72
2021/05/09 09:51:57;;;;;;;7.25;4.15;;;18.80;99.90;;;;;;4990849;28;20030;-71
2021/05/09 09:54:33;;;;;;;9.35;4.80;;;19.00;99.90;;;;;;5004165;28;20030;-70
2021/05/09 09:57:00;;;;;;;7.72;5.90;;;19.00;99.90;;;;;;4992111;28;20034;-69
2021/05/09 09:59:26;;;;;;;8.60;6.57;;;19.10;99.90;;;;;;5007443;28;20050;-71
2021/05/09 10:01:52;;;;;;;11.65;7.15;;;19.20;99.90;;;;;;5003068;28;20141;-70
2021/05/09 10:04:18;;;;;;;12.73;7.78;;;19.30;99.90;;;;;;4995778;28;20033;-71
2021/05/09 10:06:44;;;;;;;6.80;5.45;;;19.30;99.90;;;;;;4996333;28;20030;-69
2021/05/09 10:09:10;;;;;;;10.45;6.15;;;19.30;99.90;;;;;;4995498;28;20435;-72
2021/05/09 10:11:36;;;;;;;11.57;5.95;;;19.30;99.90;;;;;;4988547;28;20029;-70
2021/05/09 10:14:03;;;;;;;8.77;5.90;;;19.30;99.90;;;;;;4993338;28;20125;-72
2021/05/09 10:16:31;;;;;;;8.80;6.00;;;19.40;99.90;;;;;;4996867;28;20029;-71
2021/05/09 10:19:00;;;;;;;9.55;3.95;;;19.50;99.90;;;;;;5005602;28;20018;-71
2021/05/09 10:21:27;;;;;;;11.77;5.20;;;19.60;99.90;;;;;;4986940;28;20033;-70
2021/05/09 10:24:15;;;;;;;8.52;5.00;;;19.60;99.90;;;;;;5010273;28;20053;-70
2021/05/09 10:26:50;;;;;;;5.20;3.88;;;19.50;99.90;;;;;;5004268;28;20027;-71
2021/05/09 10:29:37;;;;;;;5.90;4.28;;;19.50;99.90;;;;;;4991432;28;20046;-70
2021/05/09 10:32:08;;;;;;;11.80;4.85;;;19.40;99.90;;;;;;5012943;28;20037;-70
2021/05/09 10:34:56;;;;;;;7.10;4.60;;;19.50;99.90;;;;;;4990167;28;20420;-71
2021/05/09 10:40:31;;;;;;;11.18;4.72;;;19.70;99.90;;;;;;5009394;28;20052;-70
2021/05/09 10:43:05;;;;;;;7.65;4.50;;;19.60;99.90;;;;;;5009244;28;20070;-69
2021/05/09 10:45:38;;;;;;;6.45;4.60;;;19.60;99.90;;;;;;5009066;28;20028;-70
2021/05/09 10:48:16;;;;;;;14.65;6.72;;;19.70;99.90;;;;;;5012481;28;20559;-72
2021/05/09 10:50:46;;;;;;;8.82;5.88;;;19.60;99.90;;;;;;5016276;28;20022;-70
2021/05/09 10:53:36;;;;;;;7.63;5.68;;;19.60;99.90;;;;;;5007873;28;20089;-72
2021/05/09 10:56:14;;;;;;;10.27;4.95;;;19.60;99.90;;;;;;4992952;28;20030;-72
2021/05/09 10:58:50;;;;;;;5.32;4.53;;;19.60;99.90;;;;;;4994083;28;20507;-72
2021/05/09 11:01:21;;;;;;;6.70;4.13;;;19.90;99.90;;;;;;5012666;28;20041;-70
2021/05/09 11:03:47;;;;;;;11.35;4.43;;;19.90;99.90;;;;;;4988438;28;20038;-70
2021/05/09 11:06:17;;;;;;;4.10;2.80;;;19.90;99.90;;;;;;4994025;28;20052;-70
2021/05/09 11:08:52;;;;;;;4.30;3.70;;;19.90;99.90;;;;;;5010216;28;20104;-70
2021/05/09 11:11:22;;;;;;;7.07;4.55;;;20.00;99.90;;;;;;5009150;28;20503;-70
2021/05/09 11:14:08;;;;;;;5.60;4.60;;;20.10;99.90;;;;;;4987010;28;20046;-71
2021/05/09 11:16:41;;;;;;;9.63;3.97;;;20.10;99.90;;;;;;4991151;28;20025;-70
2021/05/09 11:19:12;;;;;;;6.45;3.47;;;20.10;99.90;;;;;;4996061;28;20022;-73
2021/05/09 11:21:41;;;;;;;7.40;3.65;;;20.00;99.90;;;;;;4994949;28;20025;-70
2021/05/09 11:24:10;;;;;;;10.07;4.00;;;20.00;99.90;;;;;;5010456;28;20056;-73
2021/05/09 11:26:43;;;;;;;4.47;3.78;;;20.00;99.90;;;;;;4995693;28;20018;-72
2021/05/09 11:29:15;;;;;;;6.95;3.33;;;20.00;99.90;;;;;;5012368;28;20051;-73
2021/05/09 11:31:43;;;;;;;4.90;3.20;;;19.90;99.90;;;;;;5013880;28;20053;-71
2021/05/09 11:34:10;;;;;;;5.45;3.47;;;20.00;99.90;;;;;;5013188;28;20056;-71
2021/05/09 11:36:38;;;;;;;5.13;3.35;;;19.90;99.90;;;;;;4995158;28;20135;-71
2021/05/09 11:39:10;;;;;;;5.75;3.85;;;20.00;99.90;;;;;;4991859;28;20510;-72
2021/05/09 11:41:53;;;;;;;3.13;2.83;;;20.10;99.90;;;;;;5010868;28;20395;-71
2021/05/09 11:44:20;;;;;;;6.32;3.40;;;20.00;99.90;;;;;;4992638;28;20018;-71
2021/05/09 11:46:46;;;;;;;4.00;3.70;;;20.00;99.90;;;;;;5010584;28;20072;-71
2021/05/09 11:49:16;;;;;;;5.97;3.75;;;20.10;99.90;;;;;;4987417;28;20452;-70
2021/05/09 11:51:48;;;;;;;4.50;4.20;;;20.00;99.90;;;;;;4993235;28;20026;-71
2021/05/09 11:54:15;;;;;;;4.43;4.03;;;20.00;99.90;;;;;;5012456;28;20048;-71
2021/05/09 11:56:59;;;;;;;3.97;3.58;;;20.00;99.90;;;;;;5011054;28;20022;-72
2021/05/09 11:59:39;;;;;;;4.05;3.70;;;20.00;99.90;;;;;;5003783;28;20025;-71
2021/05/09 12:02:21;;;;;;;4.13;3.03;;;20.10;99.90;;;;;;5010997;28;20037;-71
2021/05/09 12:04:52;;;;;;;6.60;3.00;;;20.20;99.90;;;;;;4981985;28;20037;-71
2021/05/09 12:07:21;;;;;;;5.13;3.17;;;20.30;99.90;;;;;;5012027;28;20026;-70
2021/05/09 12:10:14;;;;;;;4.45;3.30;;;20.30;99.90;;;;;;4993939;28;20022;-72
2021/05/09 12:12:41;;;;;;;4.25;3.85;;;20.30;99.90;;;;;;4990151;28;20042;-71
2021/05/09 12:15:19;;;;;;;3.95;3.50;;;20.40;99.90;;;;;;5011927;28;20083;-71
2021/05/09 12:17:56;;;;;;;13.50;8.95;;;20.50;99.90;;;;;;5010188;28;20026;-73
2021/05/09 12:20:25;;;;;;;11.82;10.60;;;20.70;99.90;;;;;;5007082;28;20029;-71
2021/05/09 12:22:51;;;;;;;8.57;7.40;;;20.70;99.90;;;;;;5007124;28;20034;-72
2021/05/09 12:25:28;;;;;;;8.18;7.47;;;20.70;99.90;;;;;;4981345;28;20029;-74
2021/05/09 12:27:54;;;;;;;16.60;12.55;;;20.70;99.90;;;;;;5003680;28;20018;-73
2021/05/09 12:30:19;;;;;;;5.95;4.80;;;20.70;99.90;;;;;;4999943;28;20125;-73
2021/05/09 12:32:45;;;;;;;4.18;3.88;;;20.70;99.90;;;;;;4980572;28;20029;-71
2021/05/09 12:35:17;;;;;;;4.47;3.80;;;20.70;99.90;;;;;;4992662;28;20029;-72
2021/05/09 12:37:49;;;;;;;6.38;4.57;;;20.80;99.90;;;;;;5005816;28;20097;-73
2021/05/09 12:40:18;;;;;;;4.57;3.63;;;20.80;99.90;;;;;;4987450;28;20026;-72
2021/05/09 12:42:53;;;;;;;8.05;3.08;;;20.90;99.90;;;;;;4979555;28;20026;-72
2021/05/09 12:45:29;;;;;;;6.20;3.92;;;20.90;99.90;;;;;;4984871;28;20041;-71
2021/05/09 12:48:09;;;;;;;6.38;2.70;;;20.90;99.90;;;;;;4981072;28;20089;-73
2021/05/09 12:51:00;;;;;;;4.35;4.05;;;20.90;99.90;;;;;;4994747;28;20108;-71
2021/05/09 12:53:46;;;;;;;8.98;3.63;;;20.80;99.90;;;;;;5003591;28;20032;-74